sensor_id;sensor_type;location;lat;lon;timestamp;pressure;altitude;pressure_sealevel;temperature;humidity
54369;BME280;40266;52.434;17.056;2024-01-30T00:03:09;102152.05;;;-0.98;95.85
54369;BME280;40266;52.434;17.056;2024-01-30T00:26:35;102149.77;;;-1.24;95.35
54369;BME280;40266;52.434;17.056;2024-01-30T00:30:07;102154.18;;;-1.29;95.64
54369;BME280;40266;52.434;17.056;2024-01-30T00:37:38;102157.15;;;-1.34;95.77
54369;BME280;40266;52.434;17.056;2024-01-30T00:41:08;102150.33;;;-1.36;95.71
54369;BME280;40266;52.434;17.056;2024-01-30T00:44:17;102149.48;;;-1.39;95.79
54369;BME280;40266;52.434;17.056;2024-01-30T00:55:12;102145.67;;;-1.46;96.20
54369;BME280;40266;52.434;17.056;2024-01-30T01:02:40;102143.31;;;-1.49;96.10
54369;BME280;40266;52.434;17.056;2024-01-30T01:13:47;102137.12;;;-1.52;96.24
54369;BME280;40266;52.434;17.056;2024-01-30T01:36:39;102129.73;;;-1.59;96.48
54369;BME280;40266;52.434;17.056;2024-01-30T01:43:48;102129.98;;;-1.63;96.49
54369;BME280;40266;52.434;17.056;2024-01-30T01:51:22;102130.89;;;-1.66;96.53
54369;BME280;40266;52.434;17.056;2024-01-30T01:59:15;102128.05;;;-1.67;96.42
54369;BME280;40266;52.434;17.056;2024-01-30T02:46:52;102117.88;;;-1.90;96.73
54369;BME280;40266;52.434;17.056;2024-01-30T02:54:14;102116.89;;;-1.93;96.73
54369;BME280;40266;52.434;17.056;2024-01-30T03:09:58;102111.45;;;-1.98;96.85
54369;BME280;40266;52.434;17.056;2024-01-30T03:20:44;102108.16;;;-2.04;96.96
54369;BME280;40266;52.434;17.056;2024-01-30T03:24:32;102105.70;;;-2.06;96.83
54369;BME280;40266;52.434;17.056;2024-01-30T03:35:27;102096.07;;;-2.09;97.01
54369;BME280;40266;52.434;17.056;2024-01-30T03:38:48;102101.21;;;-2.09;97.06
54369;BME280;40266;52.434;17.056;2024-01-30T03:50:10;102098.98;;;-2.09;97.29
54369;BME280;40266;52.434;17.056;2024-01-30T03:57:48;102107.08;;;-2.06;97.60
54369;BME280;40266;52.434;17.056;2024-01-30T04:01:54;102107.79;;;-2.05;97.47
54369;BME280;40266;52.434;17.056;2024-01-30T04:24:20;102111.97;;;-1.95;97.67
54369;BME280;40266;52.434;17.056;2024-01-30T04:27:53;102109.58;;;-1.95;97.80
54369;BME280;40266;52.434;17.056;2024-01-30T04:35:33;102109.20;;;-1.86;98.54
54369;BME280;40266;52.434;17.056;2024-01-30T04:39:05;102110.27;;;-1.79;98.47
54369;BME280;40266;52.434;17.056;2024-01-30T04:50:37;102107.95;;;-1.62;98.68
54369;BME280;40266;52.434;17.056;2024-01-30T04:54:13;102104.73;;;-1.58;98.57
54369;BME280;40266;52.434;17.056;2024-01-30T05:05:20;102103.90;;;-1.45;98.78
54369;BME280;40266;52.434;17.056;2024-01-30T05:09:20;102108.45;;;-1.40;98.65
54369;BME280;40266;52.434;17.056;2024-01-30T05:19:48;102111.75;;;-1.33;98.51
54369;BME280;40266;52.434;17.056;2024-01-30T05:23:37;102110.80;;;-1.32;98.64
54369;BME280;40266;52.434;17.056;2024-01-30T06:00:57;102116.85;;;-1.28;98.13
54369;BME280;40266;52.434;17.056;2024-01-30T06:04:32;102115.83;;;-1.28;97.98
54369;BME280;40266;52.434;17.056;2024-01-30T06:11:54;102114.11;;;-1.28;97.94
54369;BME280;40266;52.434;17.056;2024-01-30T06:22:48;102118.19;;;-1.25;97.75
54369;BME280;40266;52.434;17.056;2024-01-30T07:08:00;102111.04;;;-1.15;97.88
54369;BME280;40266;52.434;17.056;2024-01-30T07:11:54;102112.23;;;-1.08;97.97
54369;BME280;40266;52.434;17.056;2024-01-30T07:14:51;102114.05;;;-1.03;98.00
54369;BME280;40266;52.434;17.056;2024-01-30T07:21:38;102119.90;;;-0.93;98.02
54369;BME280;40266;52.434;17.056;2024-01-30T07:28:03;102120.50;;;-0.71;98.54
54369;BME280;40266;52.434;17.056;2024-01-30T07:31:00;102118.36;;;-0.59;98.53
54369;BME280;40266;52.434;17.056;2024-01-30T07:34:13;102117.95;;;-0.48;98.51
54369;BME280;40266;52.434;17.056;2024-01-30T07:37:23;102121.56;;;-0.37;98.46
54369;BME280;40266;52.434;17.056;2024-01-30T07:40:37;102122.46;;;-0.22;98.56
54369;BME280;40266;52.434;17.056;2024-01-30T07:44:17;102120.77;;;-0.08;98.57
54369;BME280;40266;52.434;17.056;2024-01-30T07:47:50;102123.87;;;0.07;98.52
54369;BME280;40266;52.434;17.056;2024-01-30T07:50:47;102122.35;;;0.21;98.39
54369;BME280;40266;52.434;17.056;2024-01-30T07:53:51;102122.59;;;0.34;98.27
54369;BME280;40266;52.434;17.056;2024-01-30T08:03:47;102118.98;;;0.82;97.99
54369;BME280;40266;52.434;17.056;2024-01-30T08:06:36;102118.95;;;0.96;97.72
54369;BME280;40266;52.434;17.056;2024-01-30T08:10:14;102117.91;;;1.12;97.34
54369;BME280;40266;52.434;17.056;2024-01-30T08:13:43;102113.98;;;1.28;97.04
54369;BME280;40266;52.434;17.056;2024-01-30T08:16:56;102111.29;;;1.45;96.76
54369;BME280;40266;52.434;17.056;2024-01-30T08:20:09;102110.98;;;1.63;96.39
54369;BME280;40266;52.434;17.056;2024-01-30T08:27:26;102108.62;;;1.98;95.83
54369;BME280;40266;52.434;17.056;2024-01-30T08:34:50;102109.60;;;2.35;95.12
54369;BME280;40266;52.434;17.056;2024-01-30T08:42:11;102106.65;;;2.70;94.65
54369;BME280;40266;52.434;17.056;2024-01-30T08:52:31;102103.48;;;3.11;93.74
54369;BME280;40266;52.434;17.056;2024-01-30T08:56:18;102107.27;;;3.21;93.23
54369;BME280;40266;52.434;17.056;2024-01-30T09:06:31;102103.24;;;3.49;92.12
54369;BME280;40266;52.434;17.056;2024-01-30T09:09:56;102107.25;;;3.55;91.86
54369;BME280;40266;52.434;17.056;2024-01-30T09:17:11;102101.91;;;3.70;90.89
54369;BME280;40266;52.434;17.056;2024-01-30T09:42:40;102086.63;;;4.33;88.27
54369;BME280;40266;52.434;17.056;2024-01-30T09:46:46;102083.27;;;4.42;87.95
54369;BME280;40266;52.434;17.056;2024-01-30T10:03:02;102066.25;;;4.81;86.03
54369;BME280;40266;52.434;17.056;2024-01-30T10:10:31;102057.55;;;4.98;84.83
54369;BME280;40266;52.434;17.056;2024-01-30T10:17:55;102054.48;;;5.13;83.53
54369;BME280;40266;52.434;17.056;2024-01-30T10:26:34;102045.95;;;5.30;82.40
54369;BME280;40266;52.434;17.056;2024-01-30T10:34:40;102040.32;;;5.48;82.23
54369;BME280;40266;52.434;17.056;2024-01-30T10:41:27;102033.41;;;5.62;81.70
54369;BME280;40266;52.434;17.056;2024-01-30T10:48:46;102028.13;;;5.80;79.93
54369;BME280;40266;52.434;17.056;2024-01-30T10:51:34;102026.23;;;5.88;79.64
54369;BME280;40266;52.434;17.056;2024-01-30T10:54:54;102024.18;;;5.96;78.28
54369;BME280;40266;52.434;17.056;2024-01-30T10:57:42;102019.14;;;6.03;78.30
54369;BME280;40266;52.434;17.056;2024-01-30T11:01:50;102021.65;;;6.14;78.73
54369;BME280;40266;52.434;17.056;2024-01-30T11:04:58;102020.20;;;6.27;77.70
54369;BME280;40266;52.434;17.056;2024-01-30T11:07:44;102014.67;;;6.36;77.45
54369;BME280;40266;52.434;17.056;2024-01-30T11:10:44;102012.94;;;6.45;77.42
54369;BME280;40266;52.434;17.056;2024-01-30T11:14:15;102007.10;;;6.56;76.57
54369;BME280;40266;52.434;17.056;2024-01-30T11:21:47;102008.11;;;6.72;76.42
54369;BME280;40266;52.434;17.056;2024-01-30T11:28:38;101995.70;;;6.86;75.23
54369;BME280;40266;52.434;17.056;2024-01-30T11:32:39;101994.02;;;6.88;75.03
54369;BME280;40266;52.434;17.056;2024-01-30T11:40:17;101982.45;;;6.91;75.01
54369;BME280;40266;52.434;17.056;2024-01-30T11:43:52;101977.80;;;6.94;74.79
54369;BME280;40266;52.434;17.056;2024-01-30T11:54:22;101971.40;;;6.96;73.30
54369;BME280;40266;52.434;17.056;2024-01-30T12:01:55;101959.90;;;6.93;73.29
54369;BME280;40266;52.434;17.056;2024-01-30T12:12:08;101948.83;;;6.95;73.02
54369;BME280;40266;52.434;17.056;2024-01-30T12:15:47;101943.13;;;6.97;73.08
54369;BME280;40266;52.434;17.056;2024-01-30T12:22:23;101946.05;;;7.06;73.06
54369;BME280;40266;52.434;17.056;2024-01-30T12:25:42;101942.47;;;7.10;73.01
54369;BME280;40266;52.434;17.056;2024-01-30T12:32:05;101942.14;;;7.21;72.58
54369;BME280;40266;52.434;17.056;2024-01-30T12:36:14;101934.02;;;7.25;71.80
54369;BME280;40266;52.434;17.056;2024-01-30T12:39:43;101932.17;;;7.27;71.51
54369;BME280;40266;52.434;17.056;2024-01-30T12:43:19;101930.98;;;7.29;71.04
54369;BME280;40266;52.434;17.056;2024-01-30T12:46:43;101925.80;;;7.32;70.97
54369;BME280;40266;52.434;17.056;2024-01-30T12:49:34;101921.52;;;7.35;71.04
54369;BME280;40266;52.434;17.056;2024-01-30T12:53:20;101915.28;;;7.36;71.04
54369;BME280;40266;52.434;17.056;2024-01-30T12:56:29;101910.11;;;7.39;71.17
54369;BME280;40266;52.434;17.056;2024-01-30T13:02:56;101910.54;;;7.44;70.72
54369;BME280;40266;52.434;17.056;2024-01-30T13:09:32;101914.82;;;7.52;69.93
54369;BME280;40266;52.434;17.056;2024-01-30T13:12:38;101911.73;;;7.54;69.40
54369;BME280;40266;52.434;17.056;2024-01-30T13:16:18;101897.34;;;7.57;69.65
54369;BME280;40266;52.434;17.056;2024-01-30T13:19:32;101893.86;;;7.57;69.36
54369;BME280;40266;52.434;17.056;2024-01-30T13:22:50;101893.16;;;7.57;69.01
54369;BME280;40266;52.434;17.056;2024-01-30T13:29:35;101893.39;;;7.60;69.11
54369;BME280;40266;52.434;17.056;2024-01-30T13:32:49;101892.55;;;7.62;69.02
54369;BME280;40266;52.434;17.056;2024-01-30T13:35:45;101893.95;;;7.63;69.28
54369;BME280;40266;52.434;17.056;2024-01-30T13:39:01;101890.16;;;7.66;69.20
54369;BME280;40266;52.434;17.056;2024-01-30T13:49:36;101893.21;;;7.73;69.23
54369;BME280;40266;52.434;17.056;2024-01-30T14:07:25;101885.77;;;7.76;68.55
54369;BME280;40266;52.434;17.056;2024-01-30T14:10:49;101879.48;;;7.73;68.45
54369;BME280;40266;52.434;17.056;2024-01-30T14:14:24;101879.45;;;7.70;68.16
54369;BME280;40266;52.434;17.056;2024-01-30T14:17:51;101879.92;;;7.67;68.13
54369;BME280;40266;52.434;17.056;2024-01-30T14:20:45;101878.85;;;7.65;68.31
54369;BME280;40266;52.434;17.056;2024-01-30T14:28:08;101875.86;;;7.50;68.09
54369;BME280;40266;52.434;17.056;2024-01-30T14:31:49;101874.20;;;7.44;68.26
54369;BME280;40266;52.434;17.056;2024-01-30T14:35:04;101875.52;;;7.38;68.60
54369;BME280;40266;52.434;17.056;2024-01-30T14:42:17;101873.42;;;7.27;68.78
54369;BME280;40266;52.434;17.056;2024-01-30T14:49:39;101872.45;;;7.10;69.45
54369;BME280;40266;52.434;17.056;2024-01-30T14:52:54;101876.34;;;7.03;69.95
54369;BME280;40266;52.434;17.056;2024-01-30T14:56:18;101872.88;;;6.92;70.57
54369;BME280;40266;52.434;17.056;2024-01-30T15:03:27;101875.70;;;6.74;71.38
54369;BME280;40266;52.434;17.056;2024-01-30T15:07:15;101878.47;;;6.65;71.81
54369;BME280;40266;52.434;17.056;2024-01-30T15:10:51;101903.13;;;6.55;72.06
54369;BME280;40266;52.434;17.056;2024-01-30T15:13:39;101900.33;;;6.46;72.60
54369;BME280;40266;52.434;17.056;2024-01-30T15:16:32;101896.50;;;6.35;72.78
54369;BME280;40266;52.434;17.056;2024-01-30T15:19:52;101897.30;;;6.24;72.92
54369;BME280;40266;52.434;17.056;2024-01-30T15:26:37;101896.45;;;5.91;73.51
54369;BME280;40266;52.434;17.056;2024-01-30T15:29:30;101893.39;;;5.79;73.60
54369;BME280;40266;52.434;17.056;2024-01-30T15:32:41;101894.75;;;5.62;73.69
54369;BME280;40266;52.434;17.056;2024-01-30T15:35:57;101896.58;;;5.43;73.85
54369;BME280;40266;52.434;17.056;2024-01-30T15:42:55;101887.11;;;5.09;74.63
54369;BME280;40266;52.434;17.056;2024-01-30T15:53:45;101884.07;;;4.64;75.36
54369;BME280;40266;52.434;17.056;2024-01-30T15:57:04;101878.86;;;4.50;75.65
54369;BME280;40266;52.434;17.056;2024-01-30T16:00:19;101873.48;;;4.37;75.97
54369;BME280;40266;52.434;17.056;2024-01-30T16:11:40;101871.65;;;4.15;77.56
54369;BME280;40266;52.434;17.056;2024-01-30T16:15:39;101866.27;;;4.14;77.88
54369;BME280;40266;52.434;17.056;2024-01-30T16:19:32;101871.92;;;4.18;78.35
54369;BME280;40266;52.434;17.056;2024-01-30T16:26:44;101868.36;;;4.14;78.73
54369;BME280;40266;52.434;17.056;2024-01-30T16:29:35;101865.86;;;4.12;78.91
54369;BME280;40266;52.434;17.056;2024-01-30T16:32:46;101866.21;;;4.12;79.21
54369;BME280;40266;52.434;17.056;2024-01-30T16:39:51;101868.05;;;4.21;79.71
54369;BME280;40266;52.434;17.056;2024-01-30T16:42:35;101867.59;;;4.24;79.60
54369;BME280;40266;52.434;17.056;2024-01-30T16:45:18;101870.24;;;4.26;79.76
54369;BME280;40266;52.434;17.056;2024-01-30T16:49:04;101868.74;;;4.28;79.77
54369;BME280;40266;52.434;17.056;2024-01-30T16:52:00;101870.85;;;4.29;79.97
54369;BME280;40266;52.434;17.056;2024-01-30T16:59:54;101870.10;;;4.27;80.00
54369;BME280;40266;52.434;17.056;2024-01-30T17:04:11;101867.23;;;4.23;80.20
54369;BME280;40266;52.434;17.056;2024-01-30T17:11:13;101857.39;;;4.18;80.42
54369;BME280;40266;52.434;17.056;2024-01-30T17:15:11;101856.45;;;4.15;80.39
54369;BME280;40266;52.434;17.056;2024-01-30T17:22:04;101846.88;;;4.07;80.76
54369;BME280;40266;52.434;17.056;2024-01-30T17:28:59;101847.80;;;4.02;80.87
54369;BME280;40266;52.434;17.056;2024-01-30T17:32:21;101845.80;;;3.99;80.99
54369;BME280;40266;52.434;17.056;2024-01-30T17:38:48;101839.93;;;3.99;81.22
54369;BME280;40266;52.434;17.056;2024-01-30T17:41:30;101838.63;;;4.01;81.30
54369;BME280;40266;52.434;17.056;2024-01-30T17:44:28;101842.09;;;4.02;81.35
54369;BME280;40266;52.434;17.056;2024-01-30T17:47:15;101846.22;;;4.00;81.33
54369;BME280;40266;52.434;17.056;2024-01-30T17:49:59;101843.29;;;4.01;81.28
54369;BME280;40266;52.434;17.056;2024-01-30T17:52:42;101843.80;;;4.02;81.30
54369;BME280;40266;52.434;17.056;2024-01-30T17:55:26;101845.72;;;4.02;81.26
54369;BME280;40266;52.434;17.056;2024-01-30T17:58:09;101845.70;;;4.01;81.40
54369;BME280;40266;52.434;17.056;2024-01-30T18:00:53;101844.94;;;3.98;81.47
54369;BME280;40266;52.434;17.056;2024-01-30T18:03:35;101843.19;;;3.98;81.50
54369;BME280;40266;52.434;17.056;2024-01-30T18:06:19;101844.70;;;3.97;81.51
54369;BME280;40266;52.434;17.056;2024-01-30T18:09:06;101844.34;;;3.96;81.61
54369;BME280;40266;52.434;17.056;2024-01-30T18:11:50;101846.38;;;3.95;81.55
54369;BME280;40266;52.434;17.056;2024-01-30T18:14:35;101848.91;;;3.93;81.68
54369;BME280;40266;52.434;17.056;2024-01-30T18:17:19;101853.17;;;3.91;81.61
54369;BME280;40266;52.434;17.056;2024-01-30T18:20:04;101852.92;;;3.88;81.62
54369;BME280;40266;52.434;17.056;2024-01-30T18:22:52;101845.39;;;3.85;81.86
54369;BME280;40266;52.434;17.056;2024-01-30T18:25:36;101841.98;;;3.80;81.74
54369;BME280;40266;52.434;17.056;2024-01-30T18:28:20;101836.63;;;3.74;81.85
54369;BME280;40266;52.434;17.056;2024-01-30T18:31:03;101837.33;;;3.69;81.67
54369;BME280;40266;52.434;17.056;2024-01-30T18:33:46;101836.05;;;3.60;81.77
54369;BME280;40266;52.434;17.056;2024-01-30T18:36:33;101837.95;;;3.54;81.83
54369;BME280;40266;52.434;17.056;2024-01-30T18:39:17;101839.66;;;3.48;81.97
54369;BME280;40266;52.434;17.056;2024-01-30T18:42:00;101842.94;;;3.43;82.17
54369;BME280;40266;52.434;17.056;2024-01-30T18:44:44;101847.53;;;3.40;82.45
54369;BME280;40266;52.434;17.056;2024-01-30T18:47:27;101846.10;;;3.38;82.74
54369;BME280;40266;52.434;17.056;2024-01-30T18:50:11;101841.94;;;3.38;82.81
54369;BME280;40266;52.434;17.056;2024-01-30T18:52:54;101840.38;;;3.38;83.10
54369;BME280;40266;52.434;17.056;2024-01-30T18:55:37;101839.67;;;3.37;83.15
54369;BME280;40266;52.434;17.056;2024-01-30T18:58:20;101842.83;;;3.39;83.33
54369;BME280;40266;52.434;17.056;2024-01-30T19:01:07;101842.48;;;3.38;83.40
54369;BME280;40266;52.434;17.056;2024-01-30T19:03:51;101839.66;;;3.36;83.38
54369;BME280;40266;52.434;17.056;2024-01-30T19:06:34;101835.01;;;3.37;83.62
54369;BME280;40266;52.434;17.056;2024-01-30T19:09:19;101834.70;;;3.38;83.64
54369;BME280;40266;52.434;17.056;2024-01-30T19:12:07;101834.69;;;3.38;83.67
54369;BME280;40266;52.434;17.056;2024-01-30T19:14:50;101837.29;;;3.38;83.72
54369;BME280;40266;52.434;17.056;2024-01-30T19:17:37;101839.54;;;3.39;83.81
54369;BME280;40266;52.434;17.056;2024-01-30T19:20:21;101835.23;;;3.38;83.78
54369;BME280;40266;52.434;17.056;2024-01-30T19:23:17;101838.35;;;3.39;83.88
54369;BME280;40266;52.434;17.056;2024-01-30T19:26:04;101838.58;;;3.41;83.97
54369;BME280;40266;52.434;17.056;2024-01-30T19:28:53;101842.08;;;3.42;83.97
54369;BME280;40266;52.434;17.056;2024-01-30T19:31:37;101837.54;;;3.41;83.91
54369;BME280;40266;52.434;17.056;2024-01-30T19:34:21;101830.96;;;3.40;83.95
54369;BME280;40266;52.434;17.056;2024-01-30T19:37:06;101831.64;;;3.40;84.01
54369;BME280;40266;52.434;17.056;2024-01-30T19:39:50;101836.56;;;3.43;84.04
54369;BME280;40266;52.434;17.056;2024-01-30T19:42:34;101835.91;;;3.44;84.11
54369;BME280;40266;52.434;17.056;2024-01-30T19:45:17;101836.00;;;3.47;84.06
54369;BME280;40266;52.434;17.056;2024-01-30T19:48:00;101838.48;;;3.49;84.03
54369;BME280;40266;52.434;17.056;2024-01-30T19:50:43;101837.64;;;3.50;83.97
54369;BME280;40266;52.434;17.056;2024-01-30T19:53:26;101838.91;;;3.52;84.01
54369;BME280;40266;52.434;17.056;2024-01-30T19:56:13;101844.28;;;3.53;84.02
54369;BME280;40266;52.434;17.056;2024-01-30T19:58:58;101841.35;;;3.53;83.96
54369;BME280;40266;52.434;17.056;2024-01-30T20:01:41;101826.10;;;3.51;83.96
54369;BME280;40266;52.434;17.056;2024-01-30T20:04:27;101829.77;;;3.52;83.92
54369;BME280;40266;52.434;17.056;2024-01-30T20:07:12;101831.98;;;3.51;83.87
54369;BME280;40266;52.434;17.056;2024-01-30T20:10:05;101838.44;;;3.48;83.88
54369;BME280;40266;52.434;17.056;2024-01-30T20:12:51;101842.05;;;3.47;83.84
54369;BME280;40266;52.434;17.056;2024-01-30T20:15:35;101846.88;;;3.47;83.83
54369;BME280;40266;52.434;17.056;2024-01-30T20:18:21;101851.14;;;3.45;83.76
54369;BME280;40266;52.434;17.056;2024-01-30T20:21:05;101858.22;;;3.45;83.73
54369;BME280;40266;52.434;17.056;2024-01-30T20:23:53;101864.61;;;3.45;83.71
54369;BME280;40266;52.434;17.056;2024-01-30T20:26:37;101860.46;;;3.45;83.71
54369;BME280;40266;52.434;17.056;2024-01-30T20:29:23;101851.14;;;3.45;83.67
54369;BME280;40266;52.434;17.056;2024-01-30T20:32:11;101854.62;;;3.46;83.65
54369;BME280;40266;52.434;17.056;2024-01-30T20:34:55;101854.30;;;3.47;83.51
54369;BME280;40266;52.434;17.056;2024-01-30T20:37:41;101853.27;;;3.47;83.49
54369;BME280;40266;52.434;17.056;2024-01-30T20:40:25;101849.13;;;3.47;83.44
54369;BME280;40266;52.434;17.056;2024-01-30T20:43:08;101839.81;;;3.48;83.35
54369;BME280;40266;52.434;17.056;2024-01-30T20:45:52;101845.36;;;3.48;83.27
54369;BME280;40266;52.434;17.056;2024-01-30T20:48:41;101835.89;;;3.49;83.20
54369;BME280;40266;52.434;17.056;2024-01-30T20:51:27;101842.27;;;3.54;83.28
54369;BME280;40266;52.434;17.056;2024-01-30T20:54:10;101842.02;;;3.58;83.24
54369;BME280;40266;52.434;17.056;2024-01-30T20:56:55;101836.80;;;3.63;82.97
54369;BME280;40266;52.434;17.056;2024-01-30T20:59:39;101835.73;;;3.67;83.07
54369;BME280;40266;52.434;17.056;2024-01-30T21:02:22;101837.04;;;3.71;82.91
54369;BME280;40266;52.434;17.056;2024-01-30T21:05:06;101844.89;;;3.73;82.84
54369;BME280;40266;52.434;17.056;2024-01-30T21:07:50;101842.70;;;3.75;82.81
54369;BME280;40266;52.434;17.056;2024-01-30T21:10:33;101841.77;;;3.79;82.65
54369;BME280;40266;52.434;17.056;2024-01-30T21:13:17;101838.77;;;3.83;82.61
54369;BME280;40266;52.434;17.056;2024-01-30T21:16:03;101841.27;;;3.86;82.45
54369;BME280;40266;52.434;17.056;2024-01-30T21:18:52;101841.18;;;3.88;82.40
54369;BME280;40266;52.434;17.056;2024-01-30T21:21:38;101840.38;;;3.90;82.27
54369;BME280;40266;52.434;17.056;2024-01-30T21:24:22;101832.45;;;3.91;82.10
54369;BME280;40266;52.434;17.056;2024-01-30T21:27:06;101831.25;;;3.92;82.01
54369;BME280;40266;52.434;17.056;2024-01-30T21:29:49;101833.35;;;3.92;81.97
54369;BME280;40266;52.434;17.056;2024-01-30T21:32:32;101839.95;;;3.94;81.94
54369;BME280;40266;52.434;17.056;2024-01-30T21:35:16;101837.06;;;3.95;82.04
54369;BME280;40266;52.434;17.056;2024-01-30T21:38:00;101847.67;;;3.98;81.94
54369;BME280;40266;52.434;17.056;2024-01-30T21:40:43;101846.16;;;3.99;81.93
54369;BME280;40266;52.434;17.056;2024-01-30T21:43:29;101839.81;;;4.01;81.84
54369;BME280;40266;52.434;17.056;2024-01-30T21:46:25;101837.11;;;4.03;81.81
54369;BME280;40266;52.434;17.056;2024-01-30T21:49:11;101839.26;;;4.06;81.77
54369;BME280;40266;52.434;17.056;2024-01-30T21:51:55;101833.98;;;4.09;81.62
54369;BME280;40266;52.434;17.056;2024-01-30T21:54:38;101831.76;;;4.10;81.58
54369;BME280;40266;52.434;17.056;2024-01-30T21:57:24;101840.13;;;4.12;81.56
54369;BME280;40266;52.434;17.056;2024-01-30T22:00:10;101839.86;;;4.15;81.64
54369;BME280;40266;52.434;17.056;2024-01-30T22:02:53;101841.30;;;4.17;81.42
54369;BME280;40266;52.434;17.056;2024-01-30T22:05:37;101845.85;;;4.20;81.57
54369;BME280;40266;52.434;17.056;2024-01-30T22:08:22;101838.27;;;4.21;81.57
54369;BME280;40266;52.434;17.056;2024-01-30T22:11:32;101836.77;;;4.22;81.38
54369;BME280;40266;52.434;17.056;2024-01-30T22:14:18;101835.90;;;4.22;81.36
54369;BME280;40266;52.434;17.056;2024-01-30T22:17:03;101835.91;;;4.23;81.26
54369;BME280;40266;52.434;17.056;2024-01-30T22:19:49;101838.67;;;4.22;81.32
54369;BME280;40266;52.434;17.056;2024-01-30T22:22:33;101846.56;;;4.20;81.25
54369;BME280;40266;52.434;17.056;2024-01-30T22:25:17;101849.14;;;4.20;81.26
54369;BME280;40266;52.434;17.056;2024-01-30T22:28:00;101852.77;;;4.20;81.46
54369;BME280;40266;52.434;17.056;2024-01-30T22:30:46;101854.83;;;4.19;81.44
54369;BME280;40266;52.434;17.056;2024-01-30T22:33:30;101853.77;;;4.18;81.51
54369;BME280;40266;52.434;17.056;2024-01-30T22:36:15;101856.73;;;4.19;81.52
54369;BME280;40266;52.434;17.056;2024-01-30T22:39:02;101858.80;;;4.19;81.47
54369;BME280;40266;52.434;17.056;2024-01-30T22:41:49;101861.73;;;4.19;81.59
54369;BME280;40266;52.434;17.056;2024-01-30T22:44:35;101863.33;;;4.20;81.54
54369;BME280;40266;52.434;17.056;2024-01-30T22:47:21;101861.59;;;4.20;81.60
54369;BME280;40266;52.434;17.056;2024-01-30T22:50:09;101859.48;;;4.19;81.58
54369;BME280;40266;52.434;17.056;2024-01-30T22:52:53;101861.71;;;4.18;81.65
54369;BME280;40266;52.434;17.056;2024-01-30T22:55:37;101858.95;;;4.18;81.91
54369;BME280;40266;52.434;17.056;2024-01-30T22:58:23;101861.88;;;4.17;81.92
54369;BME280;40266;52.434;17.056;2024-01-30T23:01:10;101862.15;;;4.15;81.89
54369;BME280;40266;52.434;17.056;2024-01-30T23:03:58;101868.23;;;4.15;81.96
54369;BME280;40266;52.434;17.056;2024-01-30T23:06:42;101871.73;;;4.17;82.05
54369;BME280;40266;52.434;17.056;2024-01-30T23:09:25;101871.90;;;4.17;82.17
54369;BME280;40266;52.434;17.056;2024-01-30T23:12:10;101872.95;;;4.18;82.18
54369;BME280;40266;52.434;17.056;2024-01-30T23:14:56;101867.81;;;4.19;82.16
54369;BME280;40266;52.434;17.056;2024-01-30T23:17:42;101861.77;;;4.20;82.15
54369;BME280;40266;52.434;17.056;2024-01-30T23:20:26;101858.56;;;4.22;81.99
54369;BME280;40266;52.434;17.056;2024-01-30T23:23:12;101858.04;;;4.22;82.20
54369;BME280;40266;52.434;17.056;2024-01-30T23:25:58;101860.15;;;4.23;82.30
54369;BME280;40266;52.434;17.056;2024-01-30T23:28:46;101854.41;;;4.23;82.49
54369;BME280;40266;52.434;17.056;2024-01-30T23:31:29;101857.84;;;4.28;82.45
54369;BME280;40266;52.434;17.056;2024-01-30T23:34:13;101854.83;;;4.31;82.64
54369;BME280;40266;52.434;17.056;2024-01-30T23:36:59;101852.85;;;4.35;82.55
54369;BME280;40266;52.434;17.056;2024-01-30T23:39:44;101845.65;;;4.37;82.66
54369;BME280;40266;52.434;17.056;2024-01-30T23:42:30;101846.77;;;4.40;82.76
54369;BME280;40266;52.434;17.056;2024-01-30T23:45:18;101847.02;;;4.43;82.79
54369;BME280;40266;52.434;17.056;2024-01-30T23:48:04;101844.14;;;4.46;82.93
54369;BME280;40266;52.434;17.056;2024-01-30T23:50:47;101844.74;;;4.49;82.91
54369;BME280;40266;52.434;17.056;2024-01-30T23:53:30;101843.80;;;4.53;82.92
54369;BME280;40266;52.434;17.056;2024-01-30T23:56:16;101840.79;;;4.56;82.93
54369;BME280;40266;52.434;17.056;2024-01-30T23:59:06;101836.20;;;4.59;83.05
